createdAt,value
2023-05-19T00:00:40.235Z,1.25
2023-05-19T00:04:05.492Z,1.23
2023-05-19T00:07:31.130Z,1.60
2023-05-19T00:10:53.058Z,1.30
2023-05-19T00:14:17.093Z,1.30
2023-05-19T00:17:42.770Z,1.48
2023-05-19T00:21:04.421Z,1.20
2023-05-19T00:24:29.133Z,7.63
2023-05-19T00:27:50.729Z,2.25
2023-05-19T00:31:12.639Z,1.40
2023-05-19T00:34:37.242Z,1.55
2023-05-19T00:37:58.861Z,1.45
2023-05-19T00:41:21.073Z,1.40
2023-05-19T00:44:42.757Z,1.88
2023-05-19T00:48:04.531Z,1.42
2023-05-19T00:51:27.578Z,1.40
2023-05-19T00:54:51.703Z,2.25
2023-05-19T00:58:18.439Z,1.67
2023-05-19T01:01:45.831Z,1.30
2023-05-19T01:05:10.914Z,1.50
2023-05-19T01:08:36.273Z,1.30
2023-05-19T01:12:03.702Z,1.08
2023-05-19T01:15:27.065Z,1.67
2023-05-19T01:19:22.731Z,1.70
2023-05-19T01:22:59.740Z,1.30
2023-05-19T01:26:26.032Z,1.60
2023-05-19T01:30:06.219Z,1.52
2023-05-19T01:33:31.446Z,1.83
2023-05-19T01:36:55.466Z,1.35
2023-05-19T01:40:18.322Z,1.75
2023-05-19T01:43:40.766Z,1.77
2023-05-19T01:47:02.969Z,1.70
2023-05-19T01:50:24.625Z,1.70
2023-05-19T01:53:46.313Z,1.58
2023-05-19T01:57:25.898Z,1.60
2023-05-19T02:00:57.349Z,1.42
2023-05-19T02:04:29.222Z,1.60
2023-05-19T02:08:19.769Z,1.55
2023-05-19T02:11:44.377Z,3.15
2023-05-19T02:15:09.802Z,2.20
2023-05-19T02:18:33.284Z,2.30
2023-05-19T02:21:57.547Z,1.52
2023-05-19T02:25:19.250Z,1.83
2023-05-19T02:28:43.380Z,1.67
2023-05-19T02:32:07.882Z,1.85
2023-05-19T02:35:29.699Z,1.92
2023-05-19T02:38:51.326Z,2.20
2023-05-19T02:42:14.715Z,18.27
2023-05-19T02:45:36.355Z,5.80
2023-05-19T02:48:58.030Z,2.00
2023-05-19T02:52:22.121Z,2.17
2023-05-19T02:55:43.736Z,1.88
2023-05-19T02:59:07.678Z,2.25
2023-05-19T03:02:29.607Z,1.73
2023-05-19T03:05:51.324Z,2.05
2023-05-19T03:09:15.720Z,1.92
2023-05-19T03:12:37.393Z,2.13
2023-05-19T03:15:59.424Z,1.98
2023-05-19T03:19:23.590Z,2.90
2023-05-19T03:22:45.337Z,2.30
2023-05-19T03:26:09.419Z,2.10
2023-05-19T03:29:31.136Z,1.90
2023-05-19T03:32:55.259Z,2.10
2023-05-19T03:36:19.612Z,2.22
2023-05-19T03:39:41.199Z,2.05
2023-05-19T03:43:02.858Z,2.17
2023-05-19T03:46:24.588Z,1.90
2023-05-19T03:49:46.362Z,2.08
2023-05-19T03:53:08.174Z,2.22
2023-05-19T03:56:30.045Z,2.75
2023-05-19T03:59:51.619Z,3.22
2023-05-19T04:03:13.308Z,2.60
2023-05-19T04:06:37.725Z,2.65
2023-05-19T04:09:59.416Z,2.63
2023-05-19T04:13:21.728Z,2.50
2023-05-19T04:16:43.475Z,2.45
2023-05-19T04:20:08.326Z,2.95
2023-05-19T04:23:32.683Z,2.60
2023-05-19T04:26:56.784Z,2.22
2023-05-19T04:30:22.576Z,2.53
2023-05-19T04:33:48.037Z,2.60
2023-05-19T04:37:10.362Z,3.20
2023-05-19T04:40:32.270Z,3.10
2023-05-19T04:43:54.241Z,2.95
2023-05-19T04:47:15.941Z,3.25
2023-05-19T04:50:42.294Z,3.40
2023-05-19T04:54:04.134Z,4.88
2023-05-19T04:57:25.765Z,5.10
2023-05-19T05:00:51.862Z,5.55
2023-05-19T05:04:13.570Z,6.50
2023-05-19T05:07:35.269Z,6.28
2023-05-19T05:10:59.649Z,4.72
2023-05-19T05:14:21.614Z,4.35
2023-05-19T05:17:46.467Z,4.70
2023-05-19T05:21:08.674Z,4.65
2023-05-19T05:24:33.058Z,4.43
2023-05-19T05:27:54.741Z,4.25
2023-05-19T05:31:17.098Z,4.55
2023-05-19T05:34:40.330Z,4.38
2023-05-19T05:38:04.805Z,4.00
2023-05-19T05:41:27.400Z,4.32
2023-05-19T05:44:51.250Z,4.78
2023-05-19T05:48:15.540Z,4.57
2023-05-19T05:51:37.755Z,4.93
2023-05-19T05:55:02.592Z,5.90
2023-05-19T05:58:24.415Z,5.28
2023-05-19T06:01:46.208Z,5.47
2023-05-19T06:05:12.435Z,5.30
2023-05-19T06:08:34.165Z,5.95
2023-05-19T06:11:56.920Z,5.95
2023-05-19T06:15:18.579Z,5.07
2023-05-19T06:18:40.357Z,5.40
2023-05-19T06:22:02.070Z,5.93
2023-05-19T06:25:25.892Z,5.22
2023-05-19T06:28:49.967Z,6.13
2023-05-19T06:32:11.658Z,6.93
2023-05-19T06:35:33.280Z,6.30
2023-05-19T06:38:58.352Z,5.70
2023-05-19T06:42:22.684Z,6.32
2023-05-19T06:45:44.368Z,7.15
2023-05-19T06:49:08.208Z,6.47
2023-05-19T06:52:29.846Z,6.07
2023-05-19T06:55:58.651Z,8.30
2023-05-19T06:59:23.367Z,7.65
2023-05-19T07:02:45.036Z,7.07
2023-05-19T07:06:08.285Z,8.85
2023-05-19T07:09:32.689Z,6.63
2023-05-19T07:12:57.209Z,7.15
2023-05-19T07:16:18.897Z,6.72
2023-05-19T07:19:40.622Z,5.78
2023-05-19T07:23:05.294Z,6.13
2023-05-19T07:26:27.397Z,5.60
2023-05-19T07:29:51.123Z,6.90
2023-05-19T07:33:15.039Z,11.25
2023-05-19T07:36:37.063Z,6.03
2023-05-19T07:39:58.876Z,4.40
2023-05-19T07:43:20.551Z,4.18
2023-05-19T07:46:42.227Z,3.83
2023-05-19T07:50:04.434Z,3.83
2023-05-19T07:53:26.199Z,2.40
2023-05-19T07:56:48.336Z,2.80
2023-05-19T08:00:12.110Z,2.85
2023-05-19T08:03:34.061Z,3.17
2023-05-19T08:06:55.763Z,2.90
2023-05-19T08:10:17.693Z,3.33
2023-05-19T08:13:39.616Z,2.55
2023-05-19T08:17:01.211Z,2.53
2023-05-19T08:20:24.391Z,2.00
2023-05-19T08:23:46.381Z,2.10
2023-05-19T08:27:10.712Z,2.10
2023-05-19T08:30:32.530Z,2.15
2023-05-19T08:33:56.689Z,2.20
2023-05-19T08:37:20.815Z,1.90
2023-05-19T08:40:43.093Z,2.10
2023-05-19T08:44:05.208Z,1.88
2023-05-19T08:47:28.043Z,2.08
2023-05-19T08:51:11.834Z,2.10
2023-05-19T08:54:44.898Z,2.58
2023-05-19T08:58:07.264Z,2.47
2023-05-19T09:01:31.671Z,2.78
2023-05-19T09:04:56.069Z,2.35
2023-05-19T09:08:20.447Z,2.42
2023-05-19T09:11:46.348Z,2.40
2023-05-19T09:15:09.711Z,2.13
2023-05-19T09:18:33.971Z,2.20
2023-05-19T09:22:05.352Z,1.90
2023-05-19T09:25:32.139Z,2.30
2023-05-19T09:28:58.282Z,1.83
2023-05-19T09:32:29.004Z,1.95
2023-05-19T09:35:56.781Z,1.90
2023-05-19T09:39:20.149Z,1.75
2023-05-19T09:42:44.574Z,1.80
2023-05-19T09:46:14.911Z,1.95
2023-05-19T09:49:45.947Z,2.10
2023-05-19T09:53:07.598Z,1.80
2023-05-19T09:56:34.575Z,1.50
2023-05-19T09:59:57.982Z,1.87
2023-05-19T10:03:20.426Z,1.70
2023-05-19T10:06:42.419Z,1.70
2023-05-19T10:10:04.898Z,1.50
2023-05-19T10:13:28.987Z,1.70
2023-05-19T10:16:57.353Z,1.70
2023-05-19T10:20:19.116Z,1.75
2023-05-19T10:23:48.127Z,2.10
2023-05-19T10:27:13.298Z,1.65
2023-05-19T10:30:37.868Z,1.60
2023-05-19T10:34:22.305Z,1.92
2023-05-19T10:37:46.818Z,1.83
2023-05-19T10:41:26.933Z,1.70
2023-05-19T10:45:01.148Z,1.40
2023-05-19T10:48:23.315Z,1.58
2023-05-19T10:51:50.178Z,1.95
2023-05-19T10:55:17.641Z,1.47
2023-05-19T11:02:09.250Z,1.42
2023-05-19T11:05:33.919Z,1.50
2023-05-19T11:09:00.919Z,1.60
2023-05-19T11:12:25.365Z,1.90
2023-05-19T11:15:47.213Z,1.40
2023-05-19T11:19:09.974Z,1.48
2023-05-19T11:22:37.164Z,1.60
2023-05-19T11:26:02.293Z,1.48
2023-05-19T11:29:24.468Z,1.77
2023-05-19T11:32:48.254Z,1.38
2023-05-19T11:36:13.425Z,1.30
2023-05-19T11:39:35.733Z,1.58
2023-05-19T11:42:58.044Z,1.63
2023-05-19T11:46:23.037Z,1.58
2023-05-19T11:49:45.992Z,1.85
2023-05-19T11:53:08.366Z,1.70
2023-05-19T11:56:40.721Z,1.42
2023-05-19T12:00:09.166Z,1.80
2023-05-19T12:03:33.232Z,1.55
2023-05-19T12:06:55.068Z,1.65
2023-05-19T12:10:31.804Z,1.35
2023-05-19T12:14:00.817Z,3.08
2023-05-19T12:17:25.180Z,2.67
2023-05-19T12:20:51.908Z,1.58
2023-05-19T12:24:16.122Z,1.63
2023-05-19T12:27:38.255Z,1.70
2023-05-19T12:31:00.221Z,1.48
2023-05-19T12:34:22.001Z,1.30
2023-05-19T12:37:43.838Z,1.20
2023-05-19T12:41:07.075Z,1.65
2023-05-19T12:44:31.373Z,1.48
2023-05-19T12:47:56.262Z,1.30
2023-05-19T12:51:21.630Z,1.45
2023-05-19T12:54:43.594Z,1.23
2023-05-19T12:58:07.021Z,1.50
2023-05-19T13:01:30.386Z,1.60
2023-05-19T13:04:54.268Z,1.40
2023-05-19T13:08:18.353Z,1.77
2023-05-19T13:11:40.766Z,1.35
2023-05-19T13:15:02.490Z,1.45
2023-05-19T13:18:24.511Z,1.50
2023-05-19T13:21:51.242Z,1.42
2023-05-19T13:25:12.960Z,1.93
2023-05-19T13:28:34.981Z,1.50
2023-05-19T13:31:57.353Z,1.10
2023-05-19T13:35:22.584Z,1.70
2023-05-19T13:38:44.304Z,1.50
2023-05-19T13:42:08.444Z,1.40
2023-05-19T13:45:30.515Z,1.35
2023-05-19T13:48:52.393Z,1.20
2023-05-19T13:52:16.799Z,1.58
2023-05-19T13:55:38.476Z,1.50
2023-05-19T13:59:00.146Z,1.60
2023-05-19T14:02:21.888Z,1.25
2023-05-19T14:05:43.537Z,1.50
2023-05-19T14:09:06.536Z,3.60
2023-05-19T14:12:40.409Z,1.38
2023-05-19T14:16:09.128Z,1.48
2023-05-19T14:19:33.314Z,1.50
2023-05-19T14:22:55.596Z,1.45
2023-05-19T14:26:17.294Z,1.40
2023-05-19T14:29:38.956Z,1.30
2023-05-19T14:33:00.705Z,1.67
2023-05-19T14:36:22.542Z,1.67
2023-05-19T14:39:44.136Z,1.35
2023-05-19T14:43:05.815Z,1.77
2023-05-19T14:46:29.877Z,1.63
2023-05-19T14:49:56.637Z,1.30
2023-05-19T14:53:18.342Z,1.50
2023-05-19T14:56:40.018Z,1.40
2023-05-19T15:00:04.017Z,1.55
2023-05-19T15:03:25.916Z,1.60
2023-05-19T15:06:52.230Z,1.67
2023-05-19T15:10:25.285Z,1.50
2023-05-19T15:13:46.910Z,1.87
2023-05-19T15:17:13.437Z,1.88
2023-05-19T15:20:35.282Z,1.17
2023-05-19T15:23:57.134Z,1.67
2023-05-19T15:27:18.799Z,1.20
2023-05-19T15:30:40.793Z,1.48
2023-05-19T15:34:02.489Z,1.80
2023-05-19T15:37:26.348Z,1.80
2023-05-19T15:40:48.124Z,1.90
2023-05-19T15:44:12.437Z,2.10
2023-05-19T15:47:41.341Z,1.70
2023-05-19T15:51:06.295Z,1.70
2023-05-19T15:54:30.103Z,1.50
2023-05-19T15:57:51.758Z,1.75
2023-05-19T16:01:14.237Z,1.67
2023-05-19T16:04:35.944Z,1.48
2023-05-19T16:07:57.609Z,1.60
2023-05-19T16:11:20.679Z,1.73
2023-05-19T16:14:47.495Z,1.60
2023-05-19T16:18:11.870Z,1.87
2023-05-19T16:21:36.117Z,1.70
2023-05-19T16:24:58.967Z,1.65
2023-05-19T16:28:25.029Z,2.00
2023-05-19T16:31:46.922Z,1.70
2023-05-19T16:35:09.343Z,1.60
2023-05-19T16:38:34.083Z,1.77
2023-05-19T16:41:55.769Z,1.60
2023-05-19T16:45:19.923Z,1.70
2023-05-19T16:48:41.623Z,1.60
2023-05-19T16:52:03.789Z,1.80
2023-05-19T16:55:27.771Z,2.20
2023-05-19T16:58:49.450Z,3.10
2023-05-19T17:02:11.143Z,1.95
2023-05-19T17:05:36.281Z,2.28
2023-05-19T17:08:57.942Z,2.33
2023-05-19T17:12:19.632Z,2.20
2023-05-19T17:15:43.194Z,2.33
2023-05-19T17:19:05.297Z,2.00
2023-05-19T17:22:30.428Z,1.63
2023-05-19T17:25:56.794Z,3.15
2023-05-19T17:29:20.849Z,1.58
2023-05-19T17:32:42.663Z,2.00
2023-05-19T17:36:09.826Z,2.30
2023-05-19T17:39:31.511Z,1.83
2023-05-19T17:42:58.097Z,2.25
2023-05-19T17:46:19.877Z,2.10
2023-05-19T17:49:41.786Z,2.10
2023-05-19T17:53:03.817Z,2.85
2023-05-19T17:56:26.645Z,2.10
2023-05-19T17:59:50.755Z,2.05
2023-05-19T18:03:12.924Z,1.90
2023-05-19T18:06:37.318Z,2.10
2023-05-19T18:10:01.205Z,2.08
2023-05-19T18:13:26.174Z,1.90
2023-05-19T18:16:49.618Z,1.90
2023-05-19T18:20:12.173Z,2.10
2023-05-19T18:23:33.783Z,2.38
2023-05-19T18:26:55.440Z,2.15
2023-05-19T18:30:20.052Z,2.50
2023-05-19T18:33:42.182Z,2.38
2023-05-19T18:37:03.874Z,2.20
2023-05-19T18:40:25.548Z,2.30
2023-05-19T18:43:47.609Z,3.13
2023-05-19T18:47:09.310Z,3.05
2023-05-19T18:50:33.937Z,3.00
2023-05-19T18:54:00.704Z,2.80
2023-05-19T18:57:24.935Z,2.90
2023-05-19T19:00:47.088Z,2.25
2023-05-19T19:04:09.057Z,2.60
2023-05-19T19:07:31.479Z,2.72
2023-05-19T19:10:54.702Z,2.70
2023-05-19T19:14:16.341Z,2.80
2023-05-19T19:17:40.129Z,2.28
2023-05-19T19:21:06.046Z,2.65
2023-05-19T19:24:28.516Z,2.70
2023-05-19T19:27:52.831Z,3.00
2023-05-19T19:31:14.572Z,2.45
2023-05-19T19:34:36.362Z,2.80
2023-05-19T19:37:58.652Z,2.70
2023-05-19T19:41:20.397Z,2.80
2023-05-19T19:44:44.312Z,2.60
2023-05-19T19:48:07.227Z,4.80
2023-05-19T19:51:31.763Z,7.50
2023-05-19T19:54:56.185Z,5.50
2023-05-19T19:58:20.160Z,5.95
2023-05-19T20:01:44.691Z,6.05
2023-05-19T20:05:06.974Z,4.30
2023-05-19T20:08:29.209Z,4.13
2023-05-19T20:11:52.861Z,3.22
2023-05-19T20:15:14.872Z,3.33
2023-05-19T20:18:36.552Z,3.47
2023-05-19T20:22:00.601Z,3.15
2023-05-19T20:25:24.485Z,3.22
2023-05-19T20:28:48.401Z,3.42
2023-05-19T20:32:12.368Z,3.63
2023-05-19T20:35:34.197Z,3.40
2023-05-19T20:38:56.028Z,3.70
2023-05-19T20:42:17.730Z,3.75
2023-05-19T20:45:39.403Z,3.58
2023-05-19T20:49:01.161Z,3.60
2023-05-19T20:52:22.799Z,3.65
2023-05-19T20:55:45.857Z,3.17
2023-05-19T20:59:07.496Z,3.03
2023-05-19T21:02:29.255Z,3.65
2023-05-19T21:05:51.494Z,3.15
2023-05-19T21:09:14.663Z,3.58
2023-05-19T21:12:38.784Z,2.92
2023-05-19T21:16:03.165Z,2.70
2023-05-19T21:19:24.864Z,3.05
2023-05-19T21:22:46.687Z,3.50
2023-05-19T21:26:10.614Z,3.25
2023-05-19T21:29:32.458Z,3.20
2023-05-19T21:32:58.940Z,3.22
2023-05-19T21:36:20.998Z,3.17
2023-05-19T21:39:45.103Z,3.17
2023-05-19T21:43:12.716Z,3.20
2023-05-19T21:46:34.331Z,3.38
2023-05-19T21:49:58.715Z,3.50
2023-05-19T21:53:28.080Z,3.13
2023-05-19T21:56:49.749Z,3.25
2023-05-19T22:00:13.332Z,3.15
2023-05-19T22:03:37.503Z,3.65
2023-05-19T22:06:59.224Z,3.10
2023-05-19T22:10:21.590Z,3.13
2023-05-19T22:13:45.875Z,3.03
2023-05-19T22:17:07.589Z,3.22
2023-05-19T22:20:31.790Z,2.90
2023-05-19T22:23:53.675Z,3.67
2023-05-19T22:27:17.636Z,3.35
2023-05-19T22:30:40.873Z,3.03
2023-05-19T22:34:05.826Z,3.30
2023-05-19T22:37:29.052Z,3.03
2023-05-19T22:40:53.038Z,3.05
2023-05-19T22:44:18.561Z,3.05
2023-05-19T22:47:40.567Z,2.85
2023-05-19T22:51:09.845Z,2.95
2023-05-19T22:54:31.564Z,2.88
2023-05-19T22:57:53.595Z,2.78
2023-05-19T23:01:15.364Z,2.95
2023-05-19T23:04:39.591Z,2.80
2023-05-19T23:08:03.874Z,2.83
2023-05-19T23:11:25.843Z,2.78
2023-05-19T23:14:47.498Z,3.40
2023-05-19T23:18:09.217Z,3.15
2023-05-19T23:21:32.493Z,3.10
2023-05-19T23:24:56.479Z,3.08
2023-05-19T23:28:18.212Z,2.92
2023-05-19T23:31:41.208Z,3.00
2023-05-19T23:35:10.893Z,2.55
2023-05-19T23:38:32.554Z,2.90
2023-05-19T23:41:57.193Z,3.40
2023-05-19T23:45:18.963Z,3.17
2023-05-19T23:48:43.092Z,3.13
2023-05-19T23:52:04.871Z,3.40
2023-05-19T23:55:29.108Z,3.58
2023-05-19T23:58:50.941Z,3.35
